sensor_id;sensor_type;location;lat;lon;timestamp;P1;durP1;ratioP1;P2;durP2;ratioP2
42144;SDS011;27813;43.516;11.890;2022-08-21T03:24:54;6.43;;;2.92;;
42144;SDS011;27813;43.516;11.890;2022-08-21T03:29:01;5.45;;;2.83;;
42144;SDS011;27813;43.516;11.890;2022-08-21T03:33:08;7.90;;;3.47;;
42144;SDS011;27813;43.516;11.890;2022-08-21T03:37:17;7.07;;;2.80;;
42144;SDS011;27813;43.516;11.890;2022-08-21T03:41:22;5.07;;;2.72;;
42144;SDS011;27813;43.516;11.890;2022-08-21T03:45:27;5.00;;;2.90;;
42144;SDS011;27813;43.516;11.890;2022-08-21T03:49:32;3.40;;;2.88;;
42144;SDS011;27813;43.516;11.890;2022-08-21T03:53:37;6.07;;;2.60;;
42144;SDS011;27813;43.516;11.890;2022-08-21T03:57:42;5.28;;;2.90;;
42144;SDS011;27813;43.516;11.890;2022-08-21T04:01:51;4.97;;;3.08;;
42144;SDS011;27813;43.516;11.890;2022-08-21T04:05:57;5.97;;;3.55;;
42144;SDS011;27813;43.516;11.890;2022-08-21T04:10:03;3.75;;;2.75;;
42144;SDS011;27813;43.516;11.890;2022-08-21T04:14:09;5.68;;;3.17;;
42144;SDS011;27813;43.516;11.890;2022-08-21T04:18:13;9.18;;;3.80;;
42144;SDS011;27813;43.516;11.890;2022-08-21T04:22:18;9.65;;;3.38;;
42144;SDS011;27813;43.516;11.890;2022-08-21T04:26:22;5.47;;;3.25;;
42144;SDS011;27813;43.516;11.890;2022-08-21T04:30:27;5.25;;;3.90;;
42144;SDS011;27813;43.516;11.890;2022-08-21T04:34:31;3.83;;;2.92;;
42144;SDS011;27813;43.516;11.890;2022-08-21T04:38:36;5.97;;;3.03;;
42144;SDS011;27813;43.516;11.890;2022-08-21T04:42:48;6.63;;;3.17;;
42144;SDS011;27813;43.516;11.890;2022-08-21T04:46:54;4.80;;;3.20;;
42144;SDS011;27813;43.516;11.890;2022-08-21T04:55:09;5.60;;;3.10;;
42144;SDS011;27813;43.516;11.890;2022-08-21T04:59:15;8.45;;;3.53;;
42144;SDS011;27813;43.516;11.890;2022-08-21T05:03:22;7.05;;;3.47;;
42144;SDS011;27813;43.516;11.890;2022-08-21T05:07:28;4.72;;;2.83;;
42144;SDS011;27813;43.516;11.890;2022-08-21T05:11:45;4.78;;;3.03;;
42144;SDS011;27813;43.516;11.890;2022-08-21T05:15:51;5.60;;;2.70;;
42144;SDS011;27813;43.516;11.890;2022-08-21T05:19:59;6.15;;;2.38;;
42144;SDS011;27813;43.516;11.890;2022-08-21T05:24:05;3.05;;;2.30;;
42144;SDS011;27813;43.516;11.890;2022-08-21T05:28:10;2.90;;;2.50;;
42144;SDS011;27813;43.516;11.890;2022-08-21T05:32:16;3.80;;;2.25;;
42144;SDS011;27813;43.516;11.890;2022-08-21T05:36:21;4.43;;;2.13;;
42144;SDS011;27813;43.516;11.890;2022-08-21T05:40:26;3.90;;;2.40;;
42144;SDS011;27813;43.516;11.890;2022-08-21T05:44:32;3.08;;;2.00;;
42144;SDS011;27813;43.516;11.890;2022-08-21T05:48:37;3.35;;;2.05;;
42144;SDS011;27813;43.516;11.890;2022-08-21T05:52:41;2.78;;;2.05;;
42144;SDS011;27813;43.516;11.890;2022-08-21T05:56:46;2.85;;;2.15;;
42144;SDS011;27813;43.516;11.890;2022-08-21T06:00:51;3.67;;;2.25;;
42144;SDS011;27813;43.516;11.890;2022-08-21T06:04:56;4.47;;;2.20;;
42144;SDS011;27813;43.516;11.890;2022-08-21T06:09:00;4.75;;;1.95;;
42144;SDS011;27813;43.516;11.890;2022-08-21T06:13:07;3.42;;;2.00;;
42144;SDS011;27813;43.516;11.890;2022-08-21T06:17:12;3.28;;;2.20;;
42144;SDS011;27813;43.516;11.890;2022-08-21T06:21:18;3.38;;;2.03;;
42144;SDS011;27813;43.516;11.890;2022-08-21T06:25:23;4.70;;;2.10;;
42144;SDS011;27813;43.516;11.890;2022-08-21T06:29:28;2.45;;;1.83;;
42144;SDS011;27813;43.516;11.890;2022-08-21T06:33:46;3.90;;;2.00;;
42144;SDS011;27813;43.516;11.890;2022-08-21T06:37:52;3.13;;;1.70;;
42144;SDS011;27813;43.516;11.890;2022-08-21T06:41:56;4.53;;;1.85;;
42144;SDS011;27813;43.516;11.890;2022-08-21T06:46:04;3.60;;;1.40;;
42144;SDS011;27813;43.516;11.890;2022-08-21T06:50:09;1.83;;;1.40;;
42144;SDS011;27813;43.516;11.890;2022-08-21T06:54:13;2.38;;;1.77;;
42144;SDS011;27813;43.516;11.890;2022-08-21T06:58:18;3.05;;;1.38;;
42144;SDS011;27813;43.516;11.890;2022-08-21T07:02:23;3.38;;;1.40;;
42144;SDS011;27813;43.516;11.890;2022-08-21T07:06:27;2.42;;;1.70;;
42144;SDS011;27813;43.516;11.890;2022-08-21T07:10:35;3.42;;;1.80;;
42144;SDS011;27813;43.516;11.890;2022-08-21T07:14:40;3.53;;;1.55;;
42144;SDS011;27813;43.516;11.890;2022-08-21T07:18:45;3.33;;;1.50;;
42144;SDS011;27813;43.516;11.890;2022-08-21T07:22:50;4.07;;;2.10;;
42144;SDS011;27813;43.516;11.890;2022-08-21T07:26:55;2.20;;;1.70;;
42144;SDS011;27813;43.516;11.890;2022-08-21T07:31:00;2.70;;;1.80;;
42144;SDS011;27813;43.516;11.890;2022-08-21T07:35:06;5.05;;;2.15;;
42144;SDS011;27813;43.516;11.890;2022-08-21T07:39:11;4.35;;;1.90;;
42144;SDS011;27813;43.516;11.890;2022-08-21T07:43:16;3.25;;;1.80;;
42144;SDS011;27813;43.516;11.890;2022-08-21T07:47:21;2.78;;;1.73;;
42144;SDS011;27813;43.516;11.890;2022-08-21T07:51:44;4.68;;;2.10;;
42144;SDS011;27813;43.516;11.890;2022-08-21T07:55:49;2.25;;;1.52;;
42144;SDS011;27813;43.516;11.890;2022-08-21T07:59:55;4.97;;;2.47;;
42144;SDS011;27813;43.516;11.890;2022-08-21T08:04:00;10.63;;;2.47;;
42144;SDS011;27813;43.516;11.890;2022-08-21T08:08:05;4.68;;;1.98;;
42144;SDS011;27813;43.516;11.890;2022-08-21T08:12:10;4.00;;;2.42;;
42144;SDS011;27813;43.516;11.890;2022-08-21T08:16:15;5.10;;;2.30;;
42144;SDS011;27813;43.516;11.890;2022-08-21T08:20:20;2.40;;;1.70;;
42144;SDS011;27813;43.516;11.890;2022-08-21T08:24:26;4.03;;;1.90;;
42144;SDS011;27813;43.516;11.890;2022-08-21T08:28:31;5.53;;;2.33;;
42144;SDS011;27813;43.516;11.890;2022-08-21T08:32:36;4.45;;;2.42;;
42144;SDS011;27813;43.516;11.890;2022-08-21T08:36:41;2.65;;;2.03;;
42144;SDS011;27813;43.516;11.890;2022-08-21T08:41:00;3.17;;;1.70;;
42144;SDS011;27813;43.516;11.890;2022-08-21T08:45:13;3.55;;;2.08;;
42144;SDS011;27813;43.516;11.890;2022-08-21T08:54:48;4.05;;;2.38;;
42144;SDS011;27813;43.516;11.890;2022-08-21T08:59:18;3.58;;;2.10;;
42144;SDS011;27813;43.516;11.890;2022-08-21T09:03:27;3.13;;;2.20;;
42144;SDS011;27813;43.516;11.890;2022-08-21T09:12:44;2.72;;;2.00;;
42144;SDS011;27813;43.516;11.890;2022-08-21T09:25:50;3.50;;;2.28;;
42144;SDS011;27813;43.516;11.890;2022-08-21T09:30:30;3.63;;;2.00;;
42144;SDS011;27813;43.516;11.890;2022-08-21T09:34:36;3.85;;;2.00;;
42144;SDS011;27813;43.516;11.890;2022-08-21T09:43:17;3.95;;;2.58;;
42144;SDS011;27813;43.516;11.890;2022-08-21T09:47:28;4.55;;;2.20;;
42144;SDS011;27813;43.516;11.890;2022-08-21T09:51:35;3.50;;;2.40;;
42144;SDS011;27813;43.516;11.890;2022-08-21T09:55:48;3.35;;;2.00;;
42144;SDS011;27813;43.516;11.890;2022-08-21T10:00:30;3.42;;;1.90;;
42144;SDS011;27813;43.516;11.890;2022-08-21T10:04:36;2.72;;;1.95;;
42144;SDS011;27813;43.516;11.890;2022-08-21T10:08:41;3.15;;;1.90;;
42144;SDS011;27813;43.516;11.890;2022-08-21T10:21:28;2.90;;;1.73;;
42144;SDS011;27813;43.516;11.890;2022-08-21T10:26:10;2.20;;;1.50;;
42144;SDS011;27813;43.516;11.890;2022-08-21T10:34:57;3.42;;;1.83;;
42144;SDS011;27813;43.516;11.890;2022-08-21T10:43:39;1.85;;;1.50;;
42144;SDS011;27813;43.516;11.890;2022-08-21T10:47:57;3.15;;;1.50;;
42144;SDS011;27813;43.516;11.890;2022-08-21T10:52:22;2.85;;;1.60;;
42144;SDS011;27813;43.516;11.890;2022-08-21T10:56:36;2.78;;;1.83;;
42144;SDS011;27813;43.516;11.890;2022-08-21T11:00:49;1.90;;;1.70;;
42144;SDS011;27813;43.516;11.890;2022-08-21T11:04:59;2.67;;;1.63;;
42144;SDS011;27813;43.516;11.890;2022-08-21T11:09:11;4.78;;;1.48;;
42144;SDS011;27813;43.516;11.890;2022-08-21T11:17:45;2.20;;;1.38;;
42144;SDS011;27813;43.516;11.890;2022-08-21T11:22:21;3.13;;;1.30;;
42144;SDS011;27813;43.516;11.890;2022-08-21T11:40:19;2.60;;;1.27;;
42144;SDS011;27813;43.516;11.890;2022-08-21T11:49:34;2.00;;;1.10;;
42144;SDS011;27813;43.516;11.890;2022-08-21T11:53:58;3.10;;;1.30;;
42144;SDS011;27813;43.516;11.890;2022-08-21T12:07:16;2.58;;;1.60;;
42144;SDS011;27813;43.516;11.890;2022-08-21T12:11:45;1.70;;;1.10;;
42144;SDS011;27813;43.516;11.890;2022-08-21T12:16:14;3.42;;;1.50;;
42144;SDS011;27813;43.516;11.890;2022-08-21T12:28:46;1.35;;;1.02;;
42144;SDS011;27813;43.516;11.890;2022-08-21T12:33:03;2.05;;;1.48;;
42144;SDS011;27813;43.516;11.890;2022-08-21T12:41:56;1.77;;;0.90;;
42144;SDS011;27813;43.516;11.890;2022-08-21T12:46:18;1.70;;;1.27;;
42144;SDS011;27813;43.516;11.890;2022-08-21T12:50:38;1.52;;;1.23;;
42144;SDS011;27813;43.516;11.890;2022-08-21T12:54:51;2.00;;;1.30;;
42144;SDS011;27813;43.516;11.890;2022-08-21T12:59:00;2.42;;;1.20;;
42144;SDS011;27813;43.516;11.890;2022-08-21T13:03:08;3.65;;;1.45;;
42144;SDS011;27813;43.516;11.890;2022-08-21T13:07:16;1.88;;;1.20;;
42144;SDS011;27813;43.516;11.890;2022-08-21T13:11:32;2.85;;;1.38;;
42144;SDS011;27813;43.516;11.890;2022-08-21T13:15:42;3.20;;;1.50;;
42144;SDS011;27813;43.516;11.890;2022-08-21T13:19:54;4.28;;;1.52;;
42144;SDS011;27813;43.516;11.890;2022-08-21T13:24:35;2.58;;;1.23;;
42144;SDS011;27813;43.516;11.890;2022-08-21T13:28:48;2.08;;;1.13;;
42144;SDS011;27813;43.516;11.890;2022-08-21T13:32:59;2.97;;;1.23;;
42144;SDS011;27813;43.516;11.890;2022-08-21T13:37:07;2.03;;;1.20;;
42144;SDS011;27813;43.516;11.890;2022-08-21T13:41:20;3.38;;;1.13;;
42144;SDS011;27813;43.516;11.890;2022-08-21T13:45:43;2.15;;;1.00;;
42144;SDS011;27813;43.516;11.890;2022-08-21T13:49:53;3.05;;;1.35;;
42144;SDS011;27813;43.516;11.890;2022-08-21T13:54:01;1.77;;;1.00;;
42144;SDS011;27813;43.516;11.890;2022-08-21T13:58:25;2.25;;;1.08;;
42144;SDS011;27813;43.516;11.890;2022-08-21T14:02:37;2.97;;;0.90;;
42144;SDS011;27813;43.516;11.890;2022-08-21T14:06:45;5.18;;;1.10;;
42144;SDS011;27813;43.516;11.890;2022-08-21T14:10:51;2.28;;;1.05;;
42144;SDS011;27813;43.516;11.890;2022-08-21T14:15:01;1.60;;;0.90;;
42144;SDS011;27813;43.516;11.890;2022-08-21T14:19:10;2.38;;;1.25;;
42144;SDS011;27813;43.516;11.890;2022-08-21T14:23:28;1.77;;;1.00;;
42144;SDS011;27813;43.516;11.890;2022-08-21T14:27:35;3.05;;;1.00;;
42144;SDS011;27813;43.516;11.890;2022-08-21T14:31:58;2.10;;;1.13;;
42144;SDS011;27813;43.516;11.890;2022-08-21T14:36:07;1.40;;;0.80;;
42144;SDS011;27813;43.516;11.890;2022-08-21T14:40:13;2.15;;;1.10;;
42144;SDS011;27813;43.516;11.890;2022-08-21T14:44:18;2.72;;;1.15;;
42144;SDS011;27813;43.516;11.890;2022-08-21T14:48:24;3.00;;;0.98;;
42144;SDS011;27813;43.516;11.890;2022-08-21T14:52:30;1.95;;;1.00;;
42144;SDS011;27813;43.516;11.890;2022-08-21T14:56:36;3.88;;;1.85;;
42144;SDS011;27813;43.516;11.890;2022-08-21T15:00:42;1.95;;;0.90;;
42144;SDS011;27813;43.516;11.890;2022-08-21T15:04:47;2.00;;;1.10;;
42144;SDS011;27813;43.516;11.890;2022-08-21T15:08:53;2.42;;;0.93;;
42144;SDS011;27813;43.516;11.890;2022-08-21T15:12:59;2.33;;;1.00;;
42144;SDS011;27813;43.516;11.890;2022-08-21T15:17:08;1.65;;;0.80;;
42144;SDS011;27813;43.516;11.890;2022-08-21T15:21:18;1.38;;;0.95;;
42144;SDS011;27813;43.516;11.890;2022-08-21T15:25:24;1.90;;;1.00;;
42144;SDS011;27813;43.516;11.890;2022-08-21T15:29:30;2.63;;;1.33;;
42144;SDS011;27813;43.516;11.890;2022-08-21T15:33:35;1.67;;;0.90;;
42144;SDS011;27813;43.516;11.890;2022-08-21T15:37:40;1.70;;;1.00;;
42144;SDS011;27813;43.516;11.890;2022-08-21T15:41:45;1.90;;;1.13;;
42144;SDS011;27813;43.516;11.890;2022-08-21T15:45:51;1.52;;;0.90;;
42144;SDS011;27813;43.516;11.890;2022-08-21T15:49:56;2.53;;;0.93;;
42144;SDS011;27813;43.516;11.890;2022-08-21T15:54:02;1.92;;;1.02;;
42144;SDS011;27813;43.516;11.890;2022-08-21T15:58:15;1.75;;;0.90;;
42144;SDS011;27813;43.516;11.890;2022-08-21T16:02:25;1.80;;;1.10;;
42144;SDS011;27813;43.516;11.890;2022-08-21T16:06:35;1.85;;;0.90;;
42144;SDS011;27813;43.516;11.890;2022-08-21T16:10:59;1.58;;;1.02;;
42144;SDS011;27813;43.516;11.890;2022-08-21T16:15:10;1.58;;;0.90;;
42144;SDS011;27813;43.516;11.890;2022-08-21T16:19:23;1.25;;;0.90;;
42144;SDS011;27813;43.516;11.890;2022-08-21T16:23:33;1.45;;;0.95;;
42144;SDS011;27813;43.516;11.890;2022-08-21T16:27:43;1.30;;;0.80;;
42144;SDS011;27813;43.516;11.890;2022-08-21T16:31:50;2.53;;;0.95;;
42144;SDS011;27813;43.516;11.890;2022-08-21T16:35:55;2.53;;;0.90;;
42144;SDS011;27813;43.516;11.890;2022-08-21T16:40:00;1.52;;;1.05;;
42144;SDS011;27813;43.516;11.890;2022-08-21T16:44:05;27.33;;;12.00;;
42144;SDS011;27813;43.516;11.890;2022-08-21T16:48:14;14.25;;;7.10;;
42144;SDS011;27813;43.516;11.890;2022-08-21T16:52:19;8.00;;;3.60;;
42144;SDS011;27813;43.516;11.890;2022-08-21T16:56:24;4.30;;;2.22;;
42144;SDS011;27813;43.516;11.890;2022-08-21T17:00:30;2.83;;;1.40;;
42144;SDS011;27813;43.516;11.890;2022-08-21T17:04:35;3.83;;;1.45;;
42144;SDS011;27813;43.516;11.890;2022-08-21T17:08:40;2.75;;;1.27;;
42144;SDS011;27813;43.516;11.890;2022-08-21T17:12:48;3.10;;;1.27;;
42144;SDS011;27813;43.516;11.890;2022-08-21T17:16:59;2.03;;;1.33;;
42144;SDS011;27813;43.516;11.890;2022-08-21T17:21:08;1.73;;;1.15;;
42144;SDS011;27813;43.516;11.890;2022-08-21T17:25:21;2.58;;;0.90;;
42144;SDS011;27813;43.516;11.890;2022-08-21T17:29:29;2.47;;;1.20;;
42144;SDS011;27813;43.516;11.890;2022-08-21T17:33:40;2.55;;;1.13;;
42144;SDS011;27813;43.516;11.890;2022-08-21T17:37:55;2.85;;;1.35;;
42144;SDS011;27813;43.516;11.890;2022-08-21T17:42:01;6.63;;;1.83;;
42144;SDS011;27813;43.516;11.890;2022-08-21T17:46:16;2.83;;;1.38;;
42144;SDS011;27813;43.516;11.890;2022-08-21T17:50:23;2.90;;;1.25;;
42144;SDS011;27813;43.516;11.890;2022-08-21T17:54:28;1.40;;;1.00;;
42144;SDS011;27813;43.516;11.890;2022-08-21T17:58:33;2.33;;;1.50;;
42144;SDS011;27813;43.516;11.890;2022-08-21T18:02:38;2.80;;;1.25;;
42144;SDS011;27813;43.516;11.890;2022-08-21T18:06:46;3.40;;;2.08;;
42144;SDS011;27813;43.516;11.890;2022-08-21T18:10:52;4.68;;;1.30;;
42144;SDS011;27813;43.516;11.890;2022-08-21T18:14:58;2.08;;;1.63;;
42144;SDS011;27813;43.516;11.890;2022-08-21T18:19:07;1.92;;;1.40;;
42144;SDS011;27813;43.516;11.890;2022-08-21T18:23:18;3.88;;;1.45;;
42144;SDS011;27813;43.516;11.890;2022-08-21T18:27:43;2.83;;;1.52;;
42144;SDS011;27813;43.516;11.890;2022-08-21T18:31:50;6.13;;;1.90;;
42144;SDS011;27813;43.516;11.890;2022-08-21T18:35:55;2.00;;;1.27;;
42144;SDS011;27813;43.516;11.890;2022-08-21T18:40:00;4.75;;;1.13;;
42144;SDS011;27813;43.516;11.890;2022-08-21T18:44:05;2.53;;;1.27;;
42144;SDS011;27813;43.516;11.890;2022-08-21T18:48:12;2.58;;;1.60;;
42144;SDS011;27813;43.516;11.890;2022-08-21T18:52:19;3.65;;;1.73;;
42144;SDS011;27813;43.516;11.890;2022-08-21T18:56:24;3.95;;;1.58;;
42144;SDS011;27813;43.516;11.890;2022-08-21T19:00:34;3.08;;;1.75;;
42144;SDS011;27813;43.516;11.890;2022-08-21T19:04:46;2.25;;;1.38;;
42144;SDS011;27813;43.516;11.890;2022-08-21T19:08:55;3.42;;;1.42;;
42144;SDS011;27813;43.516;11.890;2022-08-21T19:13:07;1.60;;;1.10;;
42144;SDS011;27813;43.516;11.890;2022-08-21T19:17:16;1.85;;;1.30;;
42144;SDS011;27813;43.516;11.890;2022-08-21T19:21:25;5.45;;;1.60;;
42144;SDS011;27813;43.516;11.890;2022-08-21T19:25:36;4.20;;;1.45;;
42144;SDS011;27813;43.516;11.890;2022-08-21T19:29:50;3.47;;;1.42;;
42144;SDS011;27813;43.516;11.890;2022-08-21T19:34:00;2.17;;;1.30;;
42144;SDS011;27813;43.516;11.890;2022-08-21T19:38:12;3.40;;;1.33;;
42144;SDS011;27813;43.516;11.890;2022-08-21T19:42:20;2.03;;;1.20;;
42144;SDS011;27813;43.516;11.890;2022-08-21T19:46:34;2.78;;;0.93;;
42144;SDS011;27813;43.516;11.890;2022-08-21T19:50:43;3.00;;;1.30;;
42144;SDS011;27813;43.516;11.890;2022-08-21T19:54:53;2.42;;;1.33;;
42144;SDS011;27813;43.516;11.890;2022-08-21T19:59:03;5.07;;;1.75;;
42144;SDS011;27813;43.516;11.890;2022-08-21T20:03:30;3.20;;;1.60;;
42144;SDS011;27813;43.516;11.890;2022-08-21T20:07:37;3.25;;;1.33;;
42144;SDS011;27813;43.516;11.890;2022-08-21T20:11:44;1.67;;;1.25;;
42144;SDS011;27813;43.516;11.890;2022-08-21T20:16:05;1.90;;;1.38;;
42144;SDS011;27813;43.516;11.890;2022-08-21T20:20:12;1.48;;;1.10;;
42144;SDS011;27813;43.516;11.890;2022-08-21T20:24:18;2.42;;;1.48;;
42144;SDS011;27813;43.516;11.890;2022-08-21T20:28:30;1.98;;;1.50;;
42144;SDS011;27813;43.516;11.890;2022-08-21T20:32:42;2.78;;;1.40;;
42144;SDS011;27813;43.516;11.890;2022-08-21T20:36:52;3.65;;;1.48;;
42144;SDS011;27813;43.516;11.890;2022-08-21T20:41:04;5.40;;;1.38;;
42144;SDS011;27813;43.516;11.890;2022-08-21T20:45:32;2.97;;;1.20;;
42144;SDS011;27813;43.516;11.890;2022-08-21T20:49:42;5.30;;;1.38;;
42144;SDS011;27813;43.516;11.890;2022-08-21T21:03:28;4.07;;;1.45;;
42144;SDS011;27813;43.516;11.890;2022-08-21T21:08:22;5.45;;;2.10;;
42144;SDS011;27813;43.516;11.890;2022-08-21T21:21:06;3.83;;;1.33;;
42144;SDS011;27813;43.516;11.890;2022-08-21T21:25:21;3.55;;;1.67;;
42144;SDS011;27813;43.516;11.890;2022-08-21T21:29:57;2.05;;;1.42;;
42144;SDS011;27813;43.516;11.890;2022-08-21T21:34:16;1.85;;;1.38;;
42144;SDS011;27813;43.516;11.890;2022-08-21T21:38:24;2.47;;;1.50;;
42144;SDS011;27813;43.516;11.890;2022-08-21T21:56:30;1.73;;;1.20;;
42144;SDS011;27813;43.516;11.890;2022-08-21T22:00:46;3.67;;;1.65;;
42144;SDS011;27813;43.516;11.890;2022-08-21T22:09:19;2.53;;;1.60;;
42144;SDS011;27813;43.516;11.890;2022-08-21T22:18:17;2.17;;;1.50;;
42144;SDS011;27813;43.516;11.890;2022-08-21T22:22:28;3.25;;;1.45;;
42144;SDS011;27813;43.516;11.890;2022-08-21T22:26:35;3.75;;;1.50;;
42144;SDS011;27813;43.516;11.890;2022-08-21T22:30:54;4.20;;;1.60;;
42144;SDS011;27813;43.516;11.890;2022-08-21T22:35:17;2.83;;;1.77;;
42144;SDS011;27813;43.516;11.890;2022-08-21T22:39:26;2.28;;;1.40;;
42144;SDS011;27813;43.516;11.890;2022-08-21T22:43:49;4.32;;;1.70;;
42144;SDS011;27813;43.516;11.890;2022-08-21T22:48:03;4.47;;;1.70;;
42144;SDS011;27813;43.516;11.890;2022-08-21T22:56:36;4.13;;;1.45;;
42144;SDS011;27813;43.516;11.890;2022-08-21T23:05:07;2.55;;;1.30;;
42144;SDS011;27813;43.516;11.890;2022-08-21T23:09:29;3.05;;;1.52;;
42144;SDS011;27813;43.516;11.890;2022-08-21T23:13:44;2.40;;;1.40;;
42144;SDS011;27813;43.516;11.890;2022-08-21T23:26:53;4.45;;;1.83;;
